Time;durP1;ratioP1;P1;durP2;ratioP2;P2;SDS_P1;SDS_P2;PMS_P1;PMS_P2;Temp;Humidity;BMP_temperature;BMP_pressure;BME280_temperature;BME280_humidity;BME280_pressure;Samples;Min_cycle;Max_cycle;Signal;HPM_P1;HPM_P2
2022/11/05 00:10:23;;;;;;;24.60;12.67;;;11.20;99.90;;;;;;4917261;29;20447;-76
2022/11/05 00:18:19;;;;;;;18.23;11.63;;;11.20;99.90;;;;;;4917003;29;20537;-75
2022/11/05 00:20:45;;;;;;;22.50;14.07;;;11.10;99.90;;;;;;4916652;29;20800;-78
2022/11/05 00:25:58;;;;;;;26.03;14.90;;;11.00;99.90;;;;;;4916612;29;20222;-77
2022/11/05 00:28:25;;;;;;;18.40;13.10;;;11.00;99.90;;;;;;4899599;29;20420;-76
2022/11/05 00:30:51;;;;;;;21.20;13.17;;;11.00;99.90;;;;;;4916281;29;20467;-76
2022/11/05 00:33:17;;;;;;;20.73;12.23;;;10.90;99.90;;;;;;4916360;29;20431;-76
2022/11/05 00:35:42;;;;;;;25.50;13.20;;;10.90;99.90;;;;;;4916449;29;20837;-76
2022/11/05 00:38:08;;;;;;;26.20;14.87;;;10.90;99.90;;;;;;4915960;29;20172;-75
2022/11/05 00:40:33;;;;;;;19.83;13.40;;;10.80;99.90;;;;;;4916554;29;20175;-77
2022/11/05 00:45:43;;;;;;;19.70;13.83;;;10.70;99.90;;;;;;4916738;29;20306;-78
2022/11/05 00:50:53;;;;;;;19.10;13.33;;;10.60;99.90;;;;;;4917106;29;20263;-79
2022/11/05 00:53:18;;;;;;;25.67;13.63;;;10.60;99.90;;;;;;4917004;29;20474;-78
2022/11/05 00:55:45;;;;;;;19.63;12.67;;;10.60;99.90;;;;;;4916990;29;20539;-78
2022/11/05 00:58:15;;;;;;;22.00;13.90;;;10.50;99.90;;;;;;4917075;29;20184;-78
2022/11/05 01:00:48;;;;;;;19.67;13.60;;;10.50;99.90;;;;;;4916941;29;20431;-74
2022/11/05 01:03:15;;;;;;;20.40;14.07;;;10.50;99.90;;;;;;4917100;29;20462;-75
2022/11/05 01:05:44;;;;;;;17.43;12.80;;;10.40;99.90;;;;;;4916799;29;20482;-77
2022/11/05 01:08:10;;;;;;;20.80;13.70;;;10.40;99.90;;;;;;4917167;29;20432;-74
2022/11/05 01:10:46;;;;;;;24.43;14.00;;;10.30;99.90;;;;;;4916888;29;20468;-75
2022/11/05 01:13:15;;;;;;;18.20;12.80;;;10.20;99.90;;;;;;4916942;29;20800;-74
2022/11/05 01:15:41;;;;;;;20.83;12.60;;;10.30;99.90;;;;;;4899731;29;20436;-75
2022/11/05 01:18:07;;;;;;;26.87;14.63;;;10.20;99.90;;;;;;4917099;29;20995;-75
2022/11/05 01:20:32;;;;;;;21.33;12.93;;;10.20;99.90;;;;;;4918424;29;20183;-74
2022/11/05 01:22:58;;;;;;;22.77;13.63;;;10.10;99.90;;;;;;4916922;29;20431;-75
2022/11/05 01:25:23;;;;;;;23.27;12.77;;;10.10;99.90;;;;;;4916863;29;20282;-75
2022/11/05 01:27:49;;;;;;;18.20;14.90;;;10.10;99.90;;;;;;4916845;29;20278;-75
2022/11/05 01:30:15;;;;;;;18.70;13.67;;;10.10;99.90;;;;;;4916720;29;20183;-75
2022/11/05 01:32:41;;;;;;;18.20;12.23;;;10.10;99.90;;;;;;4916712;29;20223;-74
2022/11/05 05:30:59;;;;;;;26.03;16.30;;;8.80;99.90;;;;;;5682270;23;20547;-74
2022/11/05 05:33:25;;;;;;;23.37;16.83;;;8.80;99.90;;;;;;4976289;28;20473;-75
2022/11/05 05:35:51;;;;;;;20.77;15.50;;;8.90;99.90;;;;;;4978248;28;20447;-75
2022/11/05 05:38:16;;;;;;;22.80;17.20;;;8.90;99.90;;;;;;4978223;28;20516;-75
2022/11/05 05:40:42;;;;;;;34.63;18.83;;;8.80;99.90;;;;;;4977922;28;20268;-75
2022/11/05 05:43:07;;;;;;;32.77;18.60;;;8.80;99.90;;;;;;4978061;28;20178;-75
2022/11/05 05:45:35;;;;;;;33.53;18.13;;;8.80;99.90;;;;;;4977846;28;20209;-74
2022/11/05 05:48:01;;;;;;;36.20;20.43;;;8.80;99.90;;;;;;4977994;28;20178;-74
2022/11/05 05:50:26;;;;;;;29.50;18.47;;;8.80;99.90;;;;;;4977716;28;20961;-74
2022/11/05 05:52:52;;;;;;;31.70;18.90;;;8.80;99.90;;;;;;4977838;28;20178;-78
2022/11/05 05:55:17;;;;;;;30.93;18.03;;;8.80;99.90;;;;;;4977757;28;20236;-79
2022/11/05 05:57:43;;;;;;;31.53;18.47;;;8.80;99.90;;;;;;4960446;28;20590;-80
2022/11/05 06:00:09;;;;;;;28.60;18.77;;;8.80;99.90;;;;;;4977818;28;20224;-79
2022/11/05 06:02:34;;;;;;;33.77;17.80;;;8.80;99.90;;;;;;4977567;28;20196;-78
2022/11/05 06:05:00;;;;;;;27.90;17.90;;;8.80;99.90;;;;;;4977549;28;20468;-75
2022/11/05 06:07:26;;;;;;;24.10;15.97;;;8.80;99.90;;;;;;4977623;28;20250;-75
2022/11/05 06:09:51;;;;;;;31.37;18.57;;;8.80;99.90;;;;;;4977526;28;20185;-74
2022/11/05 06:12:17;;;;;;;29.03;19.63;;;8.80;99.90;;;;;;4977452;28;20181;-74
2022/11/05 06:14:42;;;;;;;29.07;17.00;;;8.70;99.90;;;;;;4977348;28;20216;-73
2022/11/05 06:17:08;;;;;;;28.47;18.33;;;8.70;99.90;;;;;;4977356;28;20178;-75
2022/11/05 06:19:33;;;;;;;31.60;17.63;;;8.80;99.90;;;;;;4977290;28;20184;-75
2022/11/05 06:21:59;;;;;;;32.37;15.97;;;8.70;99.90;;;;;;4977169;28;20174;-75
2022/11/05 06:24:24;;;;;;;35.00;16.90;;;8.70;99.90;;;;;;4971847;28;20265;-74
2022/11/05 06:26:50;;;;;;;31.53;17.63;;;8.70;99.90;;;;;;4964849;28;20177;-75
2022/11/05 06:29:15;;;;;;;34.00;17.30;;;8.70;99.90;;;;;;4976935;28;20181;-75
2022/11/05 06:31:41;;;;;;;29.13;16.60;;;8.70;99.90;;;;;;4959963;28;20546;-72
2022/11/05 06:34:06;;;;;;;27.10;15.83;;;8.70;99.90;;;;;;4976817;28;20222;-73
2022/11/05 06:36:32;;;;;;;27.50;17.23;;;8.70;99.90;;;;;;4975617;28;20177;-82
2022/11/05 06:38:57;;;;;;;29.63;16.90;;;8.70;99.90;;;;;;4975970;28;20189;-74
2022/11/05 06:41:23;;;;;;;28.03;16.23;;;8.70;99.90;;;;;;4975882;28;20173;-74
2022/11/05 06:43:49;;;;;;;22.77;14.63;;;8.70;99.90;;;;;;4975419;28;20174;-74
2022/11/05 06:46:14;;;;;;;24.63;15.27;;;8.80;99.90;;;;;;4958526;28;20304;-77
2022/11/05 06:48:40;;;;;;;26.90;16.23;;;8.80;99.90;;;;;;4975638;28;20646;-74
2022/11/05 06:51:07;;;;;;;25.70;15.57;;;8.80;99.90;;;;;;4975776;28;20178;-74
2022/11/05 06:53:33;;;;;;;23.40;14.50;;;8.80;99.90;;;;;;4975464;28;20297;-74
2022/11/05 06:56:03;;;;;;;25.20;16.70;;;8.90;99.90;;;;;;4975218;28;20989;-77
2022/11/05 06:58:29;;;;;;;23.13;16.93;;;8.90;99.90;;;;;;4975423;28;20435;-72
2022/11/05 07:01:02;;;;;;;26.07;16.17;;;8.90;99.90;;;;;;4974998;28;20437;-76
2022/11/05 07:03:28;;;;;;;31.70;16.00;;;8.90;99.90;;;;;;4975407;28;20786;-78
2022/11/05 07:05:55;;;;;;;27.03;17.77;;;8.90;99.90;;;;;;4975640;28;20477;-78
2022/11/05 07:08:21;;;;;;;33.90;16.67;;;8.90;99.90;;;;;;4974966;28;20208;-78
2022/11/05 07:10:50;;;;;;;24.53;15.27;;;8.90;99.90;;;;;;4976242;28;20441;-86
2022/11/05 07:13:15;;;;;;;26.63;17.67;;;8.90;99.90;;;;;;4975523;28;20185;-76
2022/11/05 07:15:41;;;;;;;25.00;17.10;;;8.90;99.90;;;;;;4975601;28;20444;-75
2022/11/05 07:18:06;;;;;;;24.60;17.20;;;8.90;99.90;;;;;;4975173;28;20519;-76
2022/11/05 07:20:32;;;;;;;24.73;17.87;;;9.00;99.90;;;;;;4975072;28;20182;-86
2022/11/05 07:23:06;;;;;;;28.03;16.73;;;9.00;99.90;;;;;;4975061;28;20188;-74
2022/11/05 07:25:33;;;;;;;29.30;19.03;;;9.10;99.90;;;;;;4975044;28;20217;-80
2022/11/05 07:27:59;;;;;;;25.53;17.83;;;9.10;99.90;;;;;;4975019;28;20425;-75
2022/11/05 07:30:25;;;;;;;28.37;18.80;;;9.20;99.90;;;;;;4974946;28;20456;-74
2022/11/05 07:32:50;;;;;;;28.10;18.30;;;9.30;99.90;;;;;;4974989;28;20523;-74
2022/11/05 07:35:16;;;;;;;25.67;17.70;;;9.40;99.90;;;;;;4974909;28;20954;-73
2022/11/05 07:37:47;;;;;;;29.37;20.00;;;9.60;99.90;;;;;;4957597;28;20525;-76
2022/11/05 07:40:14;;;;;;;30.77;19.17;;;9.70;99.90;;;;;;4975069;28;20473;-76
2022/11/05 07:42:47;;;;;;;27.87;18.13;;;9.90;99.90;;;;;;4974525;28;20827;-76
2022/11/05 07:45:14;;;;;;;28.30;19.43;;;9.90;99.90;;;;;;4973489;28;20552;-76
2022/11/05 07:47:48;;;;;;;27.47;18.80;;;10.00;99.90;;;;;;4974490;28;20436;-76
2022/11/05 07:50:15;;;;;;;26.27;19.03;;;10.10;99.90;;;;;;4973929;28;20437;-76
2022/11/05 07:52:41;;;;;;;26.10;18.03;;;10.10;99.90;;;;;;4974539;28;20480;-74
2022/11/05 07:55:07;;;;;;;28.83;19.47;;;10.20;99.90;;;;;;4973729;28;20527;-75
2022/11/05 07:57:39;;;;;;;26.40;19.73;;;10.20;99.90;;;;;;4974511;28;20189;-73
2022/11/05 08:00:06;;;;;;;26.20;18.87;;;10.30;99.90;;;;;;4974611;28;20429;-76
2022/11/05 08:02:31;;;;;;;26.63;18.60;;;10.30;99.90;;;;;;4974433;28;20433;-76
2022/11/05 08:04:57;;;;;;;27.33;18.87;;;10.40;99.90;;;;;;4974329;28;20883;-73
2022/11/05 08:07:22;;;;;;;33.73;18.97;;;10.50;99.90;;;;;;4974359;28;20174;-74
2022/11/05 08:09:48;;;;;;;31.50;19.10;;;10.50;99.90;;;;;;4974122;28;20519;-72
2022/11/05 08:12:13;;;;;;;30.23;20.33;;;10.60;99.90;;;;;;4974105;28;20182;-75
2022/11/05 08:14:39;;;;;;;26.83;19.20;;;10.70;99.90;;;;;;4973594;28;20178;-79
2022/11/05 08:17:04;;;;;;;35.03;19.83;;;10.80;99.90;;;;;;4974226;28;20595;-85
2022/11/05 08:19:30;;;;;;;24.90;17.77;;;10.90;99.90;;;;;;4970593;28;20265;-77
2022/11/05 08:21:55;;;;;;;28.13;17.57;;;11.00;99.90;;;;;;4964201;28;20178;-76
2022/11/05 08:24:21;;;;;;;29.90;17.20;;;11.00;99.90;;;;;;4968445;28;20181;-75
2022/11/05 08:26:46;;;;;;;28.70;18.97;;;11.10;99.90;;;;;;4974096;28;20540;-75
2022/11/05 08:29:12;;;;;;;23.90;16.47;;;11.20;99.90;;;;;;4974151;28;20720;-77
2022/11/05 08:31:37;;;;;;;23.10;16.30;;;11.30;99.90;;;;;;4974087;28;20189;-75
2022/11/05 08:34:03;;;;;;;24.10;17.10;;;11.40;99.90;;;;;;4973839;28;20244;-75
2022/11/05 08:36:28;;;;;;;24.53;16.97;;;11.50;99.90;;;;;;4973780;28;20661;-76
2022/11/05 08:38:54;;;;;;;21.33;16.50;;;11.50;99.90;;;;;;4973821;28;20181;-76
2022/11/05 08:41:20;;;;;;;24.80;16.17;;;11.50;99.90;;;;;;4973741;28;20209;-76
2022/11/05 08:43:45;;;;;;;26.73;17.53;;;11.60;99.90;;;;;;4973492;28;20182;-75
2022/11/05 08:46:11;;;;;;;30.63;18.37;;;11.60;99.90;;;;;;4973295;28;20573;-75
2022/11/05 08:48:36;;;;;;;25.10;15.93;;;11.70;99.90;;;;;;4973793;28;20182;-74
2022/11/05 08:51:02;;;;;;;21.53;16.10;;;11.70;99.90;;;;;;4973813;28;20205;-76
2022/11/05 08:53:27;;;;;;;23.03;15.60;;;11.90;99.90;;;;;;4973641;28;20493;-75
2022/11/05 08:55:57;;;;;;;24.90;14.93;;;11.90;99.90;;;;;;4973820;28;20182;-74
2022/11/05 08:58:22;;;;;;;24.63;15.03;;;12.00;99.90;;;;;;4973626;28;20169;-76
2022/11/05 09:00:48;;;;;;;23.30;14.10;;;12.10;99.90;;;;;;4973674;28;20440;-77
2022/11/05 09:03:14;;;;;;;19.53;14.60;;;12.20;99.90;;;;;;4973558;28;20198;-77
2022/11/05 09:05:41;;;;;;;24.17;15.43;;;12.30;99.90;;;;;;4972997;28;20355;-76
2022/11/05 09:08:09;;;;;;;17.33;13.30;;;12.40;99.90;;;;;;4972466;28;20512;-74
2022/11/05 09:10:35;;;;;;;22.50;15.40;;;12.40;99.90;;;;;;4973214;28;20468;-76
2022/11/05 09:13:02;;;;;;;18.90;12.90;;;12.40;99.90;;;;;;4972635;28;20580;-77
2022/11/05 09:15:28;;;;;;;17.50;12.93;;;12.50;99.90;;;;;;4973095;28;20487;-79
2022/11/05 09:17:54;;;;;;;18.70;14.13;;;12.50;99.90;;;;;;4973316;28;20995;-81
2022/11/05 09:20:20;;;;;;;21.47;15.70;;;12.60;99.90;;;;;;4973156;28;20463;-79
2022/11/05 09:22:45;;;;;;;22.77;13.43;;;12.60;99.90;;;;;;4973475;28;20433;-77
2022/11/05 09:25:11;;;;;;;20.33;12.13;;;12.60;99.90;;;;;;4972973;28;20206;-74
2022/11/05 09:27:36;;;;;;;15.30;13.47;;;12.70;99.90;;;;;;4972561;28;20264;-77
2022/11/05 09:30:04;;;;;;;19.50;11.90;;;12.60;99.90;;;;;;4973281;28;20660;-77
2022/11/05 09:32:32;;;;;;;20.17;12.97;;;12.60;99.90;;;;;;4972796;28;20237;-76
2022/11/05 09:34:59;;;;;;;19.27;11.77;;;12.60;99.90;;;;;;4972949;28;20437;-77
2022/11/05 09:37:26;;;;;;;19.02;13.30;;;12.50;99.90;;;;;;4971641;28;20767;-77
2022/11/05 09:39:51;;;;;;;18.70;11.37;;;12.80;99.90;;;;;;4972645;28;20185;-75
2022/11/05 09:42:20;;;;;;;16.83;11.03;;;13.00;99.90;;;;;;4972490;28;21003;-77
2022/11/05 09:44:53;;;;;;;17.60;11.33;;;13.20;99.90;;;;;;4973124;28;20221;-76
2022/11/05 09:47:24;;;;;;;17.07;10.20;;;13.40;99.90;;;;;;4972518;28;20935;-77
2022/11/05 09:49:52;;;;;;;18.67;11.57;;;13.40;99.90;;;;;;4955519;28;20936;-76
2022/11/05 09:52:21;;;;;;;12.77;10.97;;;13.40;99.90;;;;;;4972541;28;20769;-77
2022/11/05 09:54:49;;;;;;;14.27;11.17;;;13.50;99.90;;;;;;4972160;28;20417;-77
2022/11/05 09:57:46;;;;;;;15.83;11.73;;;13.40;99.90;;;;;;4972708;28;20441;-76
2022/11/05 10:00:15;;;;;;;18.77;10.80;;;13.50;99.90;;;;;;4972760;28;20417;-78
2022/11/05 10:02:57;;;;;;;17.80;10.70;;;13.50;99.90;;;;;;4972215;28;20436;-77
2022/11/05 10:05:24;;;;;;;15.90;10.43;;;13.60;99.90;;;;;;4963133;28;20473;-79
2022/11/05 10:07:55;;;;;;;14.97;9.40;;;13.60;99.90;;;;;;4952960;29;20458;-78
2022/11/05 10:10:47;;;;;;;20.10;11.10;;;13.70;99.90;;;;;;4952890;29;20517;-79
2022/11/05 10:13:18;;;;;;;16.20;9.00;;;13.70;99.90;;;;;;4953321;29;20897;-79
2022/11/05 10:15:52;;;;;;;12.17;8.83;;;13.80;99.90;;;;;;4953663;29;20425;-83
2022/11/05 10:18:29;;;;;;;15.80;8.50;;;13.70;99.90;;;;;;4954755;28;20422;-75
2022/11/05 10:20:55;;;;;;;17.07;9.67;;;13.70;99.90;;;;;;4957258;29;20430;-74
2022/11/05 10:23:21;;;;;;;11.87;8.00;;;13.70;99.90;;;;;;4956427;29;20480;-75
2022/11/05 10:25:52;;;;;;;12.33;8.50;;;13.70;99.90;;;;;;4957452;29;20484;-75
2022/11/05 10:28:29;;;;;;;16.30;8.07;;;13.60;99.90;;;;;;4957557;29;20477;-75
2022/11/05 10:30:59;;;;;;;7.20;6.27;;;13.40;99.90;;;;;;4957759;29;20841;-75
2022/11/05 10:33:42;;;;;;;12.67;8.00;;;13.30;99.90;;;;;;4957512;28;20465;-75
2022/11/05 10:36:17;;;;;;;11.70;7.67;;;13.40;99.90;;;;;;4957700;29;20430;-75
2022/11/05 10:38:43;;;;;;;10.13;6.63;;;13.50;99.90;;;;;;4957458;29;20425;-75
2022/11/05 10:41:17;;;;;;;10.23;6.90;;;13.60;99.90;;;;;;4957495;29;20422;-75
2022/11/05 10:43:48;;;;;;;11.37;5.53;;;13.50;99.90;;;;;;4957616;29;20272;-75
2022/11/05 10:46:13;;;;;;;8.67;5.57;;;13.40;99.90;;;;;;4957471;29;20477;-75
2022/11/05 10:48:52;;;;;;;9.27;6.30;;;13.30;99.90;;;;;;4957340;29;20422;-75
2022/11/05 10:51:18;;;;;;;8.40;5.87;;;13.30;99.90;;;;;;4957478;29;20237;-75
2022/11/05 10:53:53;;;;;;;8.50;6.27;;;13.30;99.90;;;;;;4957455;29;20705;-75
2022/11/05 10:56:34;;;;;;;7.33;6.10;;;13.20;99.90;;;;;;4957433;29;20480;-75
2022/11/05 10:59:02;;;;;;;10.43;5.27;;;13.20;99.90;;;;;;4956887;29;20426;-75
2022/11/05 11:01:28;;;;;;;8.50;5.47;;;13.20;99.90;;;;;;4957218;29;20513;-75
2022/11/05 11:04:24;;;;;;;8.07;5.60;;;13.20;99.90;;;;;;4957308;28;20445;-75
2022/11/05 11:06:53;;;;;;;9.77;6.03;;;13.30;99.90;;;;;;4937555;29;20450;-76
2022/11/05 11:09:26;;;;;;;6.87;5.97;;;13.20;99.90;;;;;;4957442;29;20757;-76
2022/11/05 11:11:57;;;;;;;13.10;6.30;;;13.20;99.90;;;;;;4957172;29;20798;-76
2022/11/05 11:14:22;;;;;;;10.73;6.40;;;13.30;99.90;;;;;;4955820;29;20422;-77
2022/11/05 11:16:50;;;;;;;11.93;6.20;;;13.40;99.90;;;;;;4956191;29;20422;-83
2022/11/05 11:19:33;;;;;;;14.20;4.40;;;13.40;99.90;;;;;;4955790;28;20222;-77
2022/11/05 11:22:02;;;;;;;9.43;5.33;;;13.50;99.90;;;;;;4955541;28;20424;-79
2022/11/05 11:24:29;;;;;;;7.70;5.10;;;13.70;99.90;;;;;;4955959;29;20914;-92
2022/11/05 11:27:01;;;;;;;11.23;4.83;;;13.80;99.90;;;;;;4957842;29;20442;-78
2022/11/05 11:29:28;;;;;;;13.60;6.60;;;13.90;99.90;;;;;;4955498;28;20430;-75
2022/11/05 11:31:58;;;;;;;8.17;5.23;;;13.80;99.90;;;;;;4955442;29;20426;-75
2022/11/05 11:34:32;;;;;;;8.00;4.77;;;13.70;99.90;;;;;;4955422;29;20525;-76
2022/11/05 11:37:15;;;;;;;13.40;5.40;;;13.60;99.90;;;;;;4955736;29;20430;-81
2022/11/05 11:39:46;;;;;;;8.50;4.70;;;13.70;99.90;;;;;;4964597;28;20795;-73
2022/11/05 11:42:24;;;;;;;7.43;4.20;;;13.70;99.90;;;;;;4974895;28;20496;-75
2022/11/05 11:44:50;;;;;;;6.33;4.33;;;13.80;99.90;;;;;;4974585;28;20563;-75
2022/11/05 11:47:19;;;;;;;11.70;3.97;;;13.80;99.90;;;;;;4974396;28;20540;-75
2022/11/05 11:49:45;;;;;;;8.90;4.47;;;13.80;99.90;;;;;;4974748;28;20173;-77
2022/11/05 11:52:26;;;;;;;7.70;4.93;;;13.70;99.90;;;;;;4974668;28;20901;-77
2022/11/05 11:55:05;;;;;;;8.47;4.80;;;13.70;99.90;;;;;;4974374;28;20483;-77
2022/11/05 11:57:40;;;;;;;11.80;6.00;;;13.80;99.90;;;;;;4974379;28;20437;-77
2022/11/05 12:00:07;;;;;;;8.50;3.60;;;13.80;99.90;;;;;;4970961;28;20975;-79
2022/11/05 12:02:54;;;;;;;9.10;4.73;;;13.80;99.90;;;;;;4974369;28;20420;-77
2022/11/05 12:05:50;;;;;;;6.03;3.80;;;13.80;99.90;;;;;;4974057;28;20468;-75
2022/11/05 12:08:33;;;;;;;7.60;3.90;;;13.80;99.90;;;;;;4974338;28;20524;-74
2022/11/05 12:11:42;;;;;;;16.63;4.80;;;13.80;99.90;;;;;;4974249;28;20448;-74
2022/11/05 12:14:35;;;;;;;6.23;3.73;;;13.70;99.90;;;;;;4930811;28;21015;-74
2022/11/05 12:17:23;;;;;;;11.00;3.60;;;13.90;99.90;;;;;;4973595;28;20444;-74
2022/11/05 12:20:28;;;;;;;6.50;4.60;;;14.00;99.90;;;;;;4974170;28;20421;-74
2022/11/05 12:23:12;;;;;;;9.03;3.30;;;13.90;99.90;;;;;;4973636;28;20464;-74
2022/11/05 12:25:49;;;;;;;5.50;3.30;;;13.90;99.90;;;;;;4973273;28;20992;-74
2022/11/05 12:28:22;;;;;;;4.03;3.13;;;14.00;99.90;;;;;;4974260;28;20473;-74
2022/11/05 12:31:25;;;;;;;10.47;4.23;;;14.00;99.90;;;;;;4974722;28;20468;-73
2022/11/05 12:34:31;;;;;;;7.87;3.80;;;13.80;99.90;;;;;;4974605;28;20508;-74
2022/11/05 12:37:18;;;;;;;6.70;3.93;;;13.80;99.90;;;;;;4974743;28;20441;-74
2022/11/05 12:40:16;;;;;;;8.53;4.03;;;13.80;99.90;;;;;;4974732;28;20448;-74
2022/11/05 12:43:00;;;;;;;8.17;3.90;;;13.80;99.90;;;;;;4974310;28;20425;-74
2022/11/05 12:45:28;;;;;;;8.00;4.00;;;13.80;99.90;;;;;;4974518;28;20789;-74
2022/11/05 12:48:20;;;;;;;6.47;3.80;;;13.70;99.90;;;;;;4974603;28;20429;-74
2022/11/05 12:51:11;;;;;;;7.83;3.80;;;13.80;99.90;;;;;;4974396;28;20437;-74
2022/11/05 12:53:37;;;;;;;5.00;3.80;;;13.80;99.90;;;;;;4974592;28;20852;-74
2022/11/05 12:56:11;;;;;;;7.00;3.90;;;13.80;99.90;;;;;;4974478;28;20437;-75
2022/11/05 12:58:43;;;;;;;7.80;4.13;;;13.70;99.90;;;;;;4974600;28;20186;-75
2022/11/05 13:01:12;;;;;;;10.80;4.60;;;13.70;99.90;;;;;;4969271;28;20533;-74
2022/11/05 13:03:55;;;;;;;8.23;5.50;;;13.80;99.90;;;;;;4955108;28;20426;-74
2022/11/05 13:06:40;;;;;;;7.97;4.83;;;13.80;99.90;;;;;;4954988;29;20487;-74
2022/11/05 13:09:29;;;;;;;7.60;4.43;;;13.70;99.90;;;;;;4954942;29;20913;-74
2022/11/05 13:12:09;;;;;;;8.90;4.90;;;13.70;99.90;;;;;;4955005;29;20866;-74
2022/11/05 13:14:43;;;;;;;7.37;5.17;;;13.80;99.90;;;;;;4954994;29;20469;-74
2022/11/05 13:17:19;;;;;;;9.13;5.67;;;13.70;99.90;;;;;;4954861;29;20441;-74
2022/11/05 13:20:04;;;;;;;7.07;5.87;;;13.70;99.90;;;;;;4954880;29;20426;-74
2022/11/05 13:22:37;;;;;;;5.60;4.80;;;13.70;99.90;;;;;;4954658;29;20433;-74
2022/11/05 13:25:17;;;;;;;7.77;5.20;;;13.70;99.90;;;;;;4954432;29;20469;-74
2022/11/05 13:27:53;;;;;;;4.90;4.40;;;13.50;99.90;;;;;;4954731;29;20492;-74
2022/11/05 13:30:22;;;;;;;7.57;5.90;;;13.60;99.90;;;;;;4954796;29;20426;-74
2022/11/05 13:33:05;;;;;;;8.80;4.57;;;13.40;99.90;;;;;;4954603;29;20565;-74
2022/11/05 13:35:40;;;;;;;6.13;5.03;;;13.30;99.90;;;;;;4954724;29;20581;-74
2022/11/05 13:39:11;;;;;;;5.43;4.67;;;13.30;99.90;;;;;;4954629;29;20485;-74
2022/11/05 13:41:25;;;;;;;11.87;5.07;;;13.30;99.90;;;;;;4933797;29;20428;-74
2022/11/05 13:44:23;;;;;;;7.13;4.40;;;13.20;99.90;;;;;;4954296;29;20440;-74
2022/11/05 13:47:15;;;;;;;9.63;5.10;;;13.40;99.90;;;;;;4954682;29;20833;-74
2022/11/05 13:50:02;;;;;;;6.23;5.13;;;13.40;99.90;;;;;;4954753;29;20424;-74
2022/11/05 13:53:06;;;;;;;4.10;3.70;;;13.30;99.90;;;;;;4954584;28;20441;-74
2022/11/05 13:55:54;;;;;;;7.17;5.10;;;13.40;99.90;;;;;;4861917;29;20434;-74
2022/11/05 13:58:43;;;;;;;7.80;5.00;;;13.50;99.90;;;;;;4955199;29;20941;-75
2022/11/05 14:01:20;;;;;;;9.80;6.40;;;13.40;99.90;;;;;;4957709;29;20438;-75
2022/11/05 14:03:51;;;;;;;7.00;4.60;;;13.40;99.90;;;;;;4958402;29;20550;-74
2022/11/05 14:06:29;;;;;;;7.07;5.67;;;13.30;99.90;;;;;;4958289;29;20489;-75
2022/11/05 14:09:02;;;;;;;7.80;5.10;;;13.30;99.90;;;;;;4957792;29;20430;-75
2022/11/05 14:11:36;;;;;;;7.20;4.87;;;13.20;99.90;;;;;;4956792;29;20449;-75
2022/11/05 14:14:16;;;;;;;9.70;4.83;;;13.30;99.90;;;;;;4957341;29;20433;-75
2022/11/05 14:17:14;;;;;;;9.87;4.70;;;13.30;99.90;;;;;;4957065;29;20434;-75
2022/11/05 14:20:03;;;;;;;8.67;5.37;;;13.40;99.90;;;;;;4957854;29;20960;-75
2022/11/05 14:22:32;;;;;;;7.70;4.83;;;13.40;99.90;;;;;;4956908;29;20430;-77
2022/11/05 14:24:59;;;;;;;11.90;4.30;;;13.40;99.90;;;;;;4956865;29;20548;-77
2022/11/05 14:27:27;;;;;;;9.80;4.50;;;13.40;99.90;;;;;;4956839;29;20449;-75
2022/11/05 14:29:53;;;;;;;7.73;4.63;;;13.40;99.90;;;;;;4956990;29;20422;-76
2022/11/05 14:32:18;;;;;;;5.80;4.87;;;13.40;99.90;;;;;;4956694;29;20867;-76
2022/11/05 14:35:33;;;;;;;7.87;4.23;;;13.40;99.90;;;;;;4956778;28;20210;-76
2022/11/05 14:37:59;;;;;;;5.80;3.80;;;13.30;99.90;;;;;;4941792;29;20185;-77
2022/11/05 14:40:45;;;;;;;8.87;4.97;;;13.20;99.90;;;;;;4956731;28;20430;-75
2022/11/05 14:43:13;;;;;;;10.90;5.30;;;13.20;99.90;;;;;;4956402;29;20783;-77
2022/11/05 14:45:51;;;;;;;10.10;3.77;;;13.10;99.90;;;;;;4957164;28;20492;-77
2022/11/05 14:48:39;;;;;;;9.47;4.30;;;13.10;99.90;;;;;;4956688;29;20797;-78
2022/11/05 14:51:34;;;;;;;10.50;3.80;;;13.20;99.90;;;;;;4965478;29;20422;-79
2022/11/05 14:54:25;;;;;;;7.03;4.60;;;13.10;99.90;;;;;;4955985;29;20466;-74
2022/11/05 14:56:59;;;;;;;7.63;4.70;;;13.10;99.90;;;;;;4956586;29;20449;-74
2022/11/05 14:59:27;;;;;;;5.53;4.10;;;13.10;99.90;;;;;;4956278;29;20429;-80
2022/11/05 15:01:59;;;;;;;6.77;4.20;;;13.10;99.90;;;;;;4956741;29;20477;-79
2022/11/05 15:04:29;;;;;;;9.93;3.63;;;13.10;99.90;;;;;;4955793;28;20426;-74
2022/11/05 15:07:01;;;;;;;9.13;3.30;;;13.00;99.90;;;;;;4963774;28;20531;-74
2022/11/05 15:09:34;;;;;;;5.30;3.60;;;12.90;99.90;;;;;;4965684;28;20442;-76
2022/11/05 15:12:07;;;;;;;5.73;3.63;;;12.90;99.90;;;;;;4972221;28;20964;-74
2022/11/05 15:14:41;;;;;;;5.17;3.63;;;13.10;99.90;;;;;;4973719;28;20429;-73
2022/11/05 15:17:22;;;;;;;6.40;3.40;;;13.00;99.90;;;;;;4975462;28;20437;-74
2022/11/05 15:19:49;;;;;;;4.57;3.73;;;13.00;99.90;;;;;;4958084;28;20945;-75
2022/11/05 15:22:25;;;;;;;8.23;4.50;;;13.00;99.90;;;;;;4978698;28;20428;-76
2022/11/05 15:24:51;;;;;;;5.93;3.77;;;13.00;99.90;;;;;;4976372;28;20453;-79
2022/11/05 15:27:26;;;;;;;5.60;3.70;;;13.00;99.90;;;;;;4975223;28;20488;-77
2022/11/05 15:29:52;;;;;;;7.77;4.60;;;13.00;99.90;;;;;;4975183;28;20177;-72
2022/11/05 15:32:23;;;;;;;7.47;4.30;;;13.00;99.90;;;;;;4974764;28;20469;-72
2022/11/05 15:34:54;;;;;;;7.17;4.97;;;12.80;99.90;;;;;;4974880;28;20280;-72
2022/11/05 15:37:23;;;;;;;6.27;3.77;;;12.80;99.90;;;;;;4974762;28;20455;-72
2022/11/05 15:39:50;;;;;;;10.77;3.83;;;12.80;99.90;;;;;;4974739;28;20908;-74
2022/11/05 15:42:24;;;;;;;6.57;4.40;;;12.80;99.90;;;;;;4974727;28;20433;-74
2022/11/05 15:44:58;;;;;;;5.73;4.07;;;12.80;99.90;;;;;;4974640;28;20878;-73
2022/11/05 15:47:29;;;;;;;7.50;4.80;;;12.80;99.90;;;;;;4974646;28;20464;-73
2022/11/05 15:49:55;;;;;;;10.43;4.60;;;12.70;99.90;;;;;;4974539;28;20433;-73
2022/11/05 15:52:33;;;;;;;14.50;4.60;;;12.80;99.90;;;;;;4975329;28;20436;-73
2022/11/05 15:55:11;;;;;;;6.70;4.57;;;12.80;99.90;;;;;;4975316;28;20421;-73
2022/11/05 15:57:37;;;;;;;5.63;4.10;;;12.70;99.90;;;;;;4975349;28;20435;-73
2022/11/05 16:00:14;;;;;;;10.83;5.20;;;12.60;99.90;;;;;;4975475;28;20421;-73
2022/11/05 16:02:40;;;;;;;5.87;3.80;;;12.60;99.90;;;;;;4975539;28;20436;-72
2022/11/05 16:05:12;;;;;;;5.20;4.17;;;12.50;99.90;;;;;;4975324;28;20465;-73
2022/11/05 16:07:42;;;;;;;7.70;4.53;;;12.50;99.90;;;;;;4975242;28;20256;-73
2022/11/05 16:10:23;;;;;;;6.63;3.60;;;12.50;99.90;;;;;;4975333;28;20432;-73
2022/11/05 16:12:49;;;;;;;6.47;3.30;;;12.50;99.90;;;;;;4975096;28;20429;-72
2022/11/05 16:15:14;;;;;;;5.80;3.57;;;12.50;99.90;;;;;;4974850;28;20436;-72
2022/11/05 16:17:53;;;;;;;7.80;3.80;;;12.40;99.90;;;;;;4974883;28;20170;-73
2022/11/05 16:20:25;;;;;;;6.87;4.10;;;12.30;99.90;;;;;;4975165;28;20180;-72
2022/11/05 16:22:54;;;;;;;16.20;4.33;;;12.30;99.90;;;;;;4975172;28;20764;-72
2022/11/05 16:25:38;;;;;;;6.53;4.77;;;12.30;99.90;;;;;;4974864;28;20523;-73
2022/11/05 16:28:19;;;;;;;7.68;4.55;;;12.40;99.90;;;;;;4973149;28;20434;-74
2022/11/05 16:31:10;;;;;;;4.97;4.20;;;12.30;99.90;;;;;;4975042;28;20181;-73
2022/11/05 16:33:46;;;;;;;7.90;4.80;;;12.40;99.90;;;;;;4970089;28;20970;-74
2022/11/05 16:36:11;;;;;;;5.37;4.20;;;12.40;99.90;;;;;;4974792;28;20429;-74
2022/11/05 16:38:37;;;;;;;8.40;3.80;;;12.30;99.90;;;;;;4974861;28;20423;-71
2022/11/05 16:41:03;;;;;;;7.80;3.83;;;12.30;99.90;;;;;;4974619;28;20175;-72
2022/11/05 16:43:28;;;;;;;5.77;3.73;;;12.30;99.90;;;;;;4974510;28;20177;-72
2022/11/05 16:45:57;;;;;;;7.80;4.23;;;12.10;99.90;;;;;;4974563;28;20213;-72
2022/11/05 16:48:23;;;;;;;11.80;5.07;;;12.00;99.90;;;;;;4974446;28;20207;-73
2022/11/05 16:50:49;;;;;;;5.17;4.37;;;12.00;99.90;;;;;;4974500;28;20488;-72
2022/11/05 16:53:15;;;;;;;12.53;4.80;;;12.00;99.90;;;;;;4974417;28;20784;-72
2022/11/05 16:55:43;;;;;;;7.17;5.13;;;12.10;99.90;;;;;;4974295;28;20882;-72
2022/11/05 16:58:23;;;;;;;5.90;3.97;;;12.10;99.90;;;;;;4974348;28;20189;-72
2022/11/05 17:00:51;;;;;;;9.47;3.90;;;12.00;99.90;;;;;;4974368;28;20523;-72
2022/11/05 17:03:17;;;;;;;5.73;3.23;;;12.00;99.90;;;;;;4974136;28;20472;-72
2022/11/05 17:05:43;;;;;;;7.13;3.60;;;12.00;99.90;;;;;;4974216;28;20821;-72
2022/11/05 17:08:08;;;;;;;7.37;4.30;;;12.00;99.90;;;;;;4974253;28;20331;-71
2022/11/05 17:10:34;;;;;;;5.57;3.00;;;12.00;99.90;;;;;;4974418;28;20421;-74
2022/11/05 17:13:00;;;;;;;4.90;3.17;;;12.00;99.90;;;;;;4974388;28;20182;-74
2022/11/05 17:15:30;;;;;;;4.33;3.00;;;12.00;99.90;;;;;;4974025;28;20170;-72
2022/11/05 17:17:57;;;;;;;7.50;3.90;;;12.00;99.90;;;;;;4974273;28;20243;-72
2022/11/05 17:20:33;;;;;;;5.47;4.20;;;12.00;99.90;;;;;;4974102;28;20507;-74